createdAt,value
2019-04-03T00:00:31.244Z,23.27
2019-04-03T00:05:36.379Z,22.93
2019-04-03T00:10:41.656Z,21.80
2019-04-03T00:15:46.694Z,20.83
2019-04-03T00:20:51.785Z,21.87
2019-04-03T00:25:57.126Z,23.10
2019-04-03T00:31:02.116Z,21.37
2019-04-03T00:36:07.432Z,24.00
2019-04-03T00:41:12.430Z,26.00
2019-04-03T00:46:18.652Z,22.17
2019-04-03T00:51:23.644Z,24.40
2019-04-03T00:56:29.740Z,23.37
2019-04-03T01:01:34.873Z,24.20
2019-04-03T01:06:42.894Z,22.20
2019-04-03T01:11:48.004Z,22.00
2019-04-03T01:16:52.959Z,21.53
2019-04-03T01:21:57.948Z,23.13
2019-04-03T01:27:02.887Z,25.43
2019-04-03T01:32:09.244Z,26.07
2019-04-03T01:37:14.265Z,25.13
2019-04-03T01:42:21.493Z,23.47
2019-04-03T01:47:27.771Z,21.77
2019-04-03T01:52:34.114Z,21.57
2019-04-03T01:57:39.116Z,22.73
2019-04-03T02:02:44.099Z,21.83
2019-04-03T02:07:49.016Z,22.70
2019-04-03T02:12:58.229Z,25.10
2019-04-03T02:18:03.464Z,23.43
2019-04-03T02:23:08.436Z,23.37
2019-04-03T02:28:13.405Z,21.67
2019-04-03T02:33:28.615Z,22.77
2019-04-03T02:38:35.947Z,23.70
2019-04-03T02:43:41.151Z,25.00
2019-04-03T02:48:46.174Z,24.83
2019-04-03T02:53:51.342Z,23.87
2019-04-03T02:58:56.441Z,24.27
2019-04-03T03:04:02.020Z,26.37
2019-04-03T03:09:07.151Z,29.70
2019-04-03T03:14:13.186Z,26.80
2019-04-03T03:19:18.659Z,26.70
2019-04-03T03:24:23.638Z,30.50
2019-04-03T03:29:31.712Z,34.97
2019-04-03T03:34:54.106Z,33.43
2019-04-03T03:39:47.480Z,31.10
2019-04-03T03:44:58.774Z,26.90
2019-04-03T03:50:05.700Z,26.13
2019-04-03T03:55:12.456Z,29.50
2019-04-03T04:00:22.391Z,36.00
2019-04-03T04:05:28.392Z,31.80
2019-04-03T04:10:38.061Z,29.40
2019-04-03T04:15:43.898Z,33.77
2019-04-03T04:20:49.088Z,28.67
2019-04-03T04:25:54.534Z,30.90
2019-04-03T04:31:00.224Z,29.23
2019-04-03T04:36:05.250Z,29.37
2019-04-03T04:41:10.672Z,30.23
2019-04-03T04:46:15.680Z,30.70
2019-04-03T04:51:21.725Z,28.37
2019-04-03T04:56:27.176Z,31.77
2019-04-03T05:01:32.318Z,26.70
2019-04-03T05:06:37.513Z,29.03
2019-04-03T05:11:42.497Z,33.70
2019-04-03T05:16:47.454Z,33.60
2019-04-03T05:21:53.111Z,32.60
2019-04-03T05:26:58.572Z,34.97
2019-04-03T05:32:03.570Z,38.13
2019-04-03T05:37:11.409Z,35.13
2019-04-03T05:42:15.757Z,36.73
2019-04-03T05:47:20.723Z,34.97
2019-04-03T05:52:26.187Z,36.50
2019-04-03T05:57:33.057Z,30.63
2019-04-03T06:02:40.909Z,34.20
2019-04-03T06:07:47.034Z,31.67
2019-04-03T06:12:53.645Z,34.00
2019-04-03T06:18:01.102Z,31.03
2019-04-03T06:23:06.359Z,33.77
2019-04-03T06:28:13.330Z,30.47
2019-04-03T06:33:18.308Z,33.23
2019-04-03T06:38:24.523Z,33.43
2019-04-03T06:43:30.790Z,35.03
2019-04-03T06:48:36.512Z,32.53
2019-04-03T06:53:43.138Z,35.53
2019-04-03T06:58:48.193Z,30.73
2019-04-03T07:03:53.166Z,33.17
2019-04-03T07:08:58.249Z,31.63
2019-04-03T07:14:03.733Z,29.93
2019-04-03T07:19:09.057Z,29.60
2019-04-03T07:24:14.405Z,31.47
2019-04-03T07:29:19.649Z,32.73
2019-04-03T07:34:24.677Z,30.37
2019-04-03T07:39:29.742Z,33.67
2019-04-03T07:44:35.005Z,31.17
2019-04-03T07:49:40.491Z,28.63
2019-04-03T07:54:45.878Z,29.57
2019-04-03T07:59:50.901Z,32.30
2019-04-03T08:04:59.463Z,30.53
2019-04-03T08:10:02.651Z,29.33
2019-04-03T08:15:09.245Z,30.60
2019-04-03T08:20:14.856Z,29.20
2019-04-03T08:25:20.222Z,30.40
2019-04-03T08:30:25.368Z,29.07
2019-04-03T08:35:30.873Z,28.30
2019-04-03T08:40:37.979Z,28.03
2019-04-03T08:45:43.108Z,28.33
2019-04-03T08:50:54.235Z,28.63
2019-04-03T08:56:02.534Z,28.23
2019-04-03T09:01:10.432Z,29.97
2019-04-03T09:06:14.716Z,28.47
2019-04-03T09:11:19.875Z,26.43
2019-04-03T09:16:24.910Z,28.30
2019-04-03T09:21:30.055Z,28.97
2019-04-03T09:26:38.113Z,28.33
2019-04-03T09:31:43.358Z,30.03
2019-04-03T09:36:48.342Z,28.13
2019-04-03T09:41:53.425Z,28.70
2019-04-03T09:46:58.440Z,28.97
2019-04-03T09:52:03.700Z,28.77
2019-04-03T09:57:08.679Z,28.67
2019-04-03T10:02:13.752Z,27.50
2019-04-03T10:07:18.809Z,28.30
2019-04-03T10:12:23.898Z,28.43
2019-04-03T10:17:29.236Z,28.80
2019-04-03T10:22:34.315Z,29.77
2019-04-03T10:27:42.544Z,30.72
2019-04-03T10:32:46.049Z,29.57
2019-04-03T10:37:52.055Z,29.12
2019-04-03T10:42:59.855Z,31.00
2019-04-03T10:48:04.350Z,29.65
2019-04-03T10:53:09.345Z,30.80
2019-04-03T10:58:15.226Z,30.95
2019-04-03T11:03:20.691Z,30.50
2019-04-03T11:08:25.959Z,33.60
2019-04-03T11:13:32.249Z,30.50
2019-04-03T11:18:38.485Z,32.25
2019-04-03T11:23:45.580Z,28.85
2019-04-03T11:28:51.487Z,30.88
2019-04-03T11:33:58.427Z,32.53
2019-04-03T11:39:12.336Z,33.42
2019-04-03T11:44:12.007Z,30.90
2019-04-03T11:49:19.361Z,31.23
2019-04-03T11:54:24.425Z,31.10
2019-04-03T11:59:29.479Z,30.43
2019-04-03T12:04:34.873Z,33.23
2019-04-03T12:09:40.065Z,34.38
2019-04-03T12:14:48.450Z,34.43
2019-04-03T12:19:54.555Z,34.30
2019-04-03T12:25:00.003Z,33.53
2019-04-03T12:30:06.668Z,32.15
2019-04-03T12:35:11.796Z,33.48
2019-04-03T12:40:17.225Z,33.58
2019-04-03T12:45:22.724Z,31.82
2019-04-03T12:50:29.035Z,32.40
2019-04-03T12:55:34.159Z,32.55
2019-04-03T13:00:46.170Z,31.07
2019-04-03T13:05:51.716Z,31.42
2019-04-03T13:10:57.190Z,31.62
2019-04-03T13:16:02.773Z,30.23
2019-04-03T13:21:09.232Z,30.47
2019-04-03T13:26:14.405Z,31.33
2019-04-03T13:31:19.887Z,31.20
2019-04-03T13:36:25.179Z,30.62
2019-04-03T13:41:33.288Z,32.73
2019-04-03T13:46:37.526Z,31.10
2019-04-03T13:51:42.649Z,31.37
2019-04-03T13:56:47.883Z,31.97
2019-04-03T14:01:53.050Z,31.15
2019-04-03T14:06:58.501Z,33.20
2019-04-03T14:12:05.211Z,32.05
2019-04-03T14:17:13.639Z,31.60
2019-04-03T14:22:18.143Z,31.02
2019-04-03T14:27:28.466Z,31.55
2019-04-03T14:32:31.177Z,32.45
2019-04-03T14:37:36.428Z,32.90
2019-04-03T14:42:41.561Z,33.25
2019-04-03T14:47:46.733Z,34.15
2019-04-03T14:52:52.517Z,31.27
2019-04-03T14:57:57.768Z,33.90
2019-04-03T15:03:04.736Z,34.00
2019-04-03T15:08:09.697Z,31.95
2019-04-03T15:13:16.935Z,34.10
2019-04-03T15:18:45.607Z,33.05
2019-04-03T15:23:48.964Z,33.15
2019-04-03T15:28:54.694Z,31.62
2019-04-03T15:34:00.476Z,30.50
2019-04-03T15:39:12.552Z,32.20
2019-04-03T15:44:20.045Z,34.35
2019-04-03T15:49:26.604Z,30.77
2019-04-03T15:54:33.030Z,34.03
2019-04-03T15:59:38.730Z,38.95
2019-04-03T16:04:44.116Z,33.73
2019-04-03T16:09:51.283Z,33.42
2019-04-03T16:14:57.449Z,31.57
2019-04-03T16:20:03.068Z,32.38
2019-04-03T16:25:09.747Z,31.15
2019-04-03T16:30:24.316Z,31.33
2019-04-03T16:35:31.149Z,31.10
2019-04-03T16:40:39.021Z,29.25
2019-04-03T16:45:44.597Z,32.35
2019-04-03T16:50:50.009Z,31.93
2019-04-03T16:55:57.985Z,30.52
2019-04-03T17:01:03.154Z,30.15
2019-04-03T17:06:08.235Z,28.60
2019-04-03T17:11:14.818Z,27.22
2019-04-03T17:16:20.027Z,29.23
2019-04-03T17:21:25.643Z,28.00
2019-04-03T17:26:32.061Z,29.63
2019-04-03T17:31:42.290Z,28.62
2019-04-03T17:36:47.331Z,28.05
2019-04-03T17:41:56.573Z,30.20
2019-04-03T17:47:01.702Z,32.17
2019-04-03T17:52:06.933Z,29.35
2019-04-03T17:57:13.703Z,29.05
2019-04-03T18:02:24.601Z,30.32
2019-04-03T18:07:30.889Z,29.57
2019-04-03T18:12:35.965Z,30.57
2019-04-03T18:17:41.011Z,31.15
2019-04-03T18:22:46.023Z,30.47
2019-04-03T18:27:51.129Z,33.48
2019-04-03T18:32:58.048Z,32.75
2019-04-03T18:38:03.300Z,30.70
2019-04-03T18:43:08.451Z,33.40
2019-04-03T18:48:16.247Z,32.00
2019-04-03T18:53:21.109Z,34.58
2019-04-03T18:58:26.247Z,35.37
2019-04-03T19:03:31.519Z,33.40
2019-04-03T19:08:36.654Z,31.27
2019-04-03T19:13:44.497Z,32.15
2019-04-03T19:18:49.229Z,30.15
2019-04-03T19:23:54.467Z,30.90
2019-04-03T19:28:59.549Z,31.37
2019-04-03T19:34:05.709Z,32.43
2019-04-03T19:39:11.014Z,29.33
2019-04-03T19:44:18.069Z,30.40
2019-04-03T19:49:23.405Z,28.03
2019-04-03T19:54:28.509Z,28.53
2019-04-03T19:59:35.097Z,32.60
2019-04-03T20:04:40.559Z,29.95
2019-04-03T20:09:45.589Z,28.47
2019-04-03T20:14:57.957Z,29.77
2019-04-03T20:19:58.858Z,29.07
2019-04-03T20:25:03.849Z,29.48
2019-04-03T20:30:09.268Z,28.20
2019-04-03T20:35:14.351Z,27.37
2019-04-03T20:40:19.538Z,29.07
2019-04-03T20:45:26.385Z,29.50
2019-04-03T20:50:31.432Z,32.13
2019-04-03T20:55:36.553Z,29.40
2019-04-03T21:00:41.797Z,27.20
2019-04-03T21:05:48.857Z,29.83
2019-04-03T21:10:54.055Z,28.40
2019-04-03T21:15:59.199Z,29.23
2019-04-03T21:21:04.347Z,27.63
2019-04-03T21:26:09.385Z,27.60
2019-04-03T21:31:14.448Z,25.97
2019-04-03T21:36:19.560Z,29.23
2019-04-03T21:41:24.671Z,29.73
2019-04-03T21:46:29.704Z,28.27
2019-04-03T21:51:35.053Z,26.77
2019-04-03T21:56:40.075Z,28.60
2019-04-03T22:01:46.153Z,28.63
2019-04-03T22:06:51.261Z,29.63
2019-04-03T22:11:56.364Z,30.17
2019-04-03T22:17:01.391Z,29.47
2019-04-03T22:22:06.469Z,28.47
2019-04-03T22:27:12.522Z,29.30
2019-04-03T22:32:17.675Z,30.60
2019-04-03T22:37:22.867Z,29.27
2019-04-03T22:42:28.222Z,32.50
2019-04-03T22:47:33.228Z,28.57
2019-04-03T22:52:39.922Z,28.87
2019-04-03T22:57:45.320Z,29.13
2019-04-03T23:02:50.426Z,29.27
2019-04-03T23:07:55.405Z,31.87
2019-04-03T23:13:00.738Z,30.67
2019-04-03T23:18:05.764Z,31.40
2019-04-03T23:23:10.873Z,33.83
2019-04-03T23:28:15.864Z,34.70
2019-04-03T23:33:21.054Z,38.57
2019-04-03T23:38:26.726Z,37.43
2019-04-03T23:43:32.225Z,33.27
2019-04-03T23:48:37.232Z,31.50
2019-04-03T23:53:42.275Z,30.83
2019-04-03T23:58:47.328Z,32.70
